createdAt,value
2018-09-05T00:02:23.912Z,101379.23
2018-09-05T00:07:16.437Z,101381.12
2018-09-05T00:12:09.075Z,101381.95
2018-09-05T00:17:02.054Z,101371.30
2018-09-05T00:21:54.867Z,101377.30
2018-09-05T00:26:47.534Z,101365.01
2018-09-05T00:31:40.096Z,101366.34
2018-09-05T00:36:39.566Z,101367.42
2018-09-05T00:41:32.142Z,101366.30
2018-09-05T00:46:24.711Z,101366.58
2018-09-05T00:51:17.409Z,101374.75
2018-09-05T00:56:09.945Z,101381.84
2018-09-05T01:01:02.508Z,101372.83
2018-09-05T01:05:55.315Z,101371.72
2018-09-05T01:10:48.102Z,101367.89
2018-09-05T01:15:41.215Z,101378.53
2018-09-05T01:20:33.807Z,101375.50
2018-09-05T01:25:26.500Z,101377.95
2018-09-05T01:30:19.120Z,101382.58
2018-09-05T01:35:11.714Z,101387.73
2018-09-05T01:40:04.487Z,101389.91
2018-09-05T01:44:57.144Z,101390.19
2018-09-05T01:49:49.778Z,101387.44
2018-09-05T01:54:42.373Z,101393.73
2018-09-05T01:59:34.986Z,101398.36
2018-09-05T02:04:27.599Z,101389.92
2018-09-05T02:09:20.210Z,101389.92
2018-09-05T02:14:12.910Z,101392.91
2018-09-05T02:19:05.518Z,101388.55
2018-09-05T02:23:58.170Z,101389.09
2018-09-05T02:28:51.154Z,101391.28
2018-09-05T02:33:43.838Z,101393.17
2018-09-05T02:38:36.520Z,101394.83
2018-09-05T02:43:34.904Z,101393.72
2018-09-05T02:48:27.516Z,101396.20
2018-09-05T02:53:20.288Z,101399.48
2018-09-05T02:58:12.814Z,101394.31
2018-09-05T03:03:05.773Z,101391.58
2018-09-05T03:07:58.379Z,101404.92
2018-09-05T03:12:50.960Z,101403.26
2018-09-05T03:17:43.568Z,101421.55
2018-09-05T03:22:36.195Z,101418.02
2018-09-05T03:27:28.762Z,101410.13
2018-09-05T03:32:21.521Z,101412.30
2018-09-05T03:37:14.092Z,101413.95
2018-09-05T03:42:06.817Z,101414.77
2018-09-05T03:46:59.393Z,101419.96
2018-09-05T03:51:52.024Z,101415.86
2018-09-05T03:56:44.541Z,101419.95
2018-09-05T04:01:37.159Z,101423.22
2018-09-05T04:06:29.742Z,101418.58
2018-09-05T04:11:22.351Z,101420.23
2018-09-05T04:16:14.918Z,101422.13
2018-09-05T04:21:07.502Z,101421.31
2018-09-05T04:26:00.164Z,101426.24
2018-09-05T04:30:52.885Z,101429.27
2018-09-05T04:35:45.451Z,101432.55
2018-09-05T04:40:38.067Z,101424.91
2018-09-05T04:45:30.713Z,101429.81
2018-09-05T04:50:23.386Z,101441.00
2018-09-05T04:55:15.981Z,101442.37
2018-09-05T05:00:08.618Z,101447.00
2018-09-05T05:05:01.161Z,101451.89
2018-09-05T05:09:53.982Z,101451.91
2018-09-05T05:14:46.719Z,101462.00
2018-09-05T05:19:39.306Z,101467.20
2018-09-05T05:24:31.850Z,101469.09
2018-09-05T05:29:24.550Z,101477.03
2018-09-05T05:34:17.696Z,101478.97
2018-09-05T05:39:11.235Z,101474.92
2018-09-05T05:44:03.986Z,101474.95
2018-09-05T05:48:56.658Z,101483.41
2018-09-05T05:53:49.281Z,101480.16
2018-09-05T05:58:41.984Z,101477.18
2018-09-05T06:03:34.739Z,101477.45
2018-09-05T06:08:31.818Z,101484.27
2018-09-05T06:13:24.489Z,101480.48
2018-09-05T06:18:17.113Z,101487.62
2018-09-05T06:23:09.686Z,101491.17
2018-09-05T06:28:02.243Z,101494.75
2018-09-05T06:32:54.939Z,101502.67
2018-09-05T06:37:47.499Z,101496.67
2018-09-05T06:42:40.115Z,101496.93
2018-09-05T06:47:32.839Z,101497.48
2018-09-05T06:52:25.443Z,101498.86
2018-09-05T06:57:18.396Z,101499.15
2018-09-05T07:02:11.021Z,101503.27
2018-09-05T07:07:03.767Z,101501.67
2018-09-05T07:11:56.362Z,101509.06
2018-09-05T07:16:49.059Z,101503.02
2018-09-05T07:21:41.588Z,101505.39
2018-09-05T07:26:34.177Z,101509.84
2018-09-05T07:31:26.788Z,101494.92
2018-09-05T07:36:19.389Z,101502.41
2018-09-05T07:41:12.054Z,101502.80
2018-09-05T07:46:05.042Z,101501.13
2018-09-05T07:50:57.772Z,101502.02
2018-09-05T07:55:50.467Z,101507.00
2018-09-05T08:00:43.205Z,101505.16
2018-09-05T08:05:35.827Z,101504.41
2018-09-05T08:10:28.432Z,101507.14
2018-09-05T08:15:20.991Z,101505.78
2018-09-05T08:20:13.705Z,101501.37
2018-09-05T08:25:06.547Z,101501.39
2018-09-05T08:29:59.236Z,101499.64
2018-09-05T08:34:52.659Z,101494.92
2018-09-05T08:39:45.736Z,101502.02
2018-09-05T08:44:38.295Z,101499.73
2018-09-05T08:49:30.865Z,101495.03
2018-09-05T08:54:23.603Z,101497.01
2018-09-05T08:59:16.195Z,101494.84
2018-09-05T09:04:08.760Z,101488.77
2018-09-05T09:09:01.424Z,101493.78
2018-09-05T09:13:53.969Z,101488.26
2018-09-05T09:18:46.648Z,101498.31
2018-09-05T09:23:39.347Z,101487.44
2018-09-05T09:28:31.914Z,101491.64
2018-09-05T09:33:24.857Z,101487.83
2018-09-05T09:38:18.036Z,101487.59
2018-09-05T09:43:10.783Z,101483.11
2018-09-05T09:48:03.886Z,101474.31
2018-09-05T09:52:56.499Z,101473.99
2018-09-05T09:57:49.246Z,101473.32
2018-09-05T10:02:47.536Z,101460.94
2018-09-05T10:07:45.753Z,101457.92
2018-09-05T10:12:46.996Z,101455.16
2018-09-05T10:17:39.899Z,101461.91
2018-09-05T10:22:32.836Z,101454.67
2018-09-05T10:27:26.283Z,101457.95
2018-09-05T10:32:18.911Z,101449.30
2018-09-05T10:37:11.739Z,101459.69
2018-09-05T10:42:04.950Z,101454.94
2018-09-05T10:46:57.534Z,101453.58
2018-09-05T10:51:54.388Z,101448.42
2018-09-05T10:56:47.004Z,101443.47
2018-09-05T11:01:39.704Z,101438.77
2018-09-05T11:06:32.317Z,101437.22
2018-09-05T11:11:24.966Z,101438.45
2018-09-05T11:16:17.742Z,101432.01
2018-09-05T11:21:10.398Z,101422.77
2018-09-05T11:26:03.048Z,101420.57
2018-09-05T11:30:55.684Z,101405.95
2018-09-05T11:35:48.262Z,101408.80
2018-09-05T11:40:40.866Z,101409.78
2018-09-05T11:45:33.530Z,101411.22
2018-09-05T11:50:26.115Z,101418.08
2018-09-05T11:55:18.767Z,101420.42
2018-09-05T12:00:11.349Z,101411.94
2018-09-05T12:05:04.025Z,101409.41
2018-09-05T12:09:56.617Z,101407.16
2018-09-05T12:14:49.190Z,101398.63
2018-09-05T12:19:41.786Z,101400.82
2018-09-05T12:25:08.981Z,101393.64
2018-09-05T12:30:01.719Z,101397.25
2018-09-05T12:34:54.470Z,101394.30
2018-09-05T12:39:47.148Z,101388.12
2018-09-05T12:44:39.804Z,101390.35
2018-09-05T12:49:32.410Z,101388.47
2018-09-05T12:54:25.106Z,101383.13
2018-09-05T12:59:17.762Z,101379.63
2018-09-05T13:04:10.391Z,101380.81
2018-09-05T13:09:05.839Z,101372.94
2018-09-05T13:13:58.785Z,101367.42
2018-09-05T13:18:51.294Z,101366.45
2018-09-05T13:23:43.987Z,101359.80
2018-09-05T13:28:36.758Z,101361.38
2018-09-05T13:33:29.335Z,101356.38
2018-09-05T13:38:22.086Z,101361.38
2018-09-05T13:43:14.830Z,101356.95
2018-09-05T13:48:07.505Z,101356.72
2018-09-05T13:53:00.109Z,101348.37
2018-09-05T13:57:52.659Z,101347.58
2018-09-05T14:02:46.412Z,101345.25
2018-09-05T14:07:38.970Z,101332.88
2018-09-05T14:12:31.576Z,101341.91
2018-09-05T14:17:24.283Z,101329.82
2018-09-05T14:22:16.900Z,101330.64
2018-09-05T14:27:09.694Z,101334.92
2018-09-05T14:32:02.285Z,101320.98
2018-09-05T14:36:54.916Z,101323.59
2018-09-05T14:41:47.518Z,101320.87
2018-09-05T14:46:40.171Z,101318.92
2018-09-05T14:51:33.014Z,101315.77
2018-09-05T14:56:25.735Z,101316.33
2018-09-05T15:01:18.500Z,101297.87
2018-09-05T15:06:11.161Z,101301.03
2018-09-05T15:11:03.887Z,101304.11
2018-09-05T15:15:56.576Z,101305.92
2018-09-05T15:20:49.232Z,101306.23
2018-09-05T15:25:42.185Z,101303.72
2018-09-05T15:30:34.819Z,101303.72
2018-09-05T15:35:27.398Z,101302.17
2018-09-05T15:40:20.084Z,101304.02
2018-09-05T15:45:12.763Z,101300.83
2018-09-05T15:50:05.497Z,101299.69
2018-09-05T15:54:57.963Z,101304.47
2018-09-05T15:59:51.104Z,101300.74
2018-09-05T16:04:43.767Z,101295.86
2018-09-05T16:09:36.339Z,101290.47
2018-09-05T16:14:29.098Z,101283.67
2018-09-05T16:19:21.678Z,101280.73
2018-09-05T16:24:14.243Z,101284.44
2018-09-05T16:29:06.896Z,101286.05
2018-09-05T16:33:59.499Z,101276.31
2018-09-05T16:38:52.128Z,101275.31
2018-09-05T16:43:44.746Z,101269.70
2018-09-05T16:48:37.469Z,101272.82
2018-09-05T16:53:30.039Z,101274.33
2018-09-05T16:58:22.693Z,101286.91
2018-09-05T17:03:15.414Z,101276.25
2018-09-05T17:08:07.963Z,101278.35
2018-09-05T17:13:00.520Z,101284.87
2018-09-05T17:17:53.176Z,101279.56
2018-09-05T17:22:45.764Z,101284.73
2018-09-05T17:27:38.299Z,101282.72
2018-09-05T17:32:30.895Z,101284.25
2018-09-05T17:37:23.451Z,101281.45
2018-09-05T17:42:16.008Z,101289.30
2018-09-05T17:47:08.627Z,101286.74
2018-09-05T17:52:01.200Z,101295.77
2018-09-05T17:56:53.794Z,101299.28
2018-09-05T18:01:46.427Z,101297.45
2018-09-05T18:06:39.058Z,101287.50
2018-09-05T18:11:31.700Z,101288.86
2018-09-05T18:16:24.375Z,101293.17
2018-09-05T18:21:17.011Z,101291.92
2018-09-05T18:26:09.920Z,101300.06
2018-09-05T18:31:02.535Z,101309.05
2018-09-05T18:35:55.798Z,101306.19
2018-09-05T18:40:48.326Z,101303.09
2018-09-05T18:45:40.985Z,101301.37
2018-09-05T18:50:33.664Z,101306.78
2018-09-05T18:55:26.260Z,101300.89
2018-09-05T19:00:18.867Z,101299.98
2018-09-05T19:05:11.577Z,101311.11
2018-09-05T19:10:04.186Z,101311.08
2018-09-05T19:14:56.818Z,101318.37
2018-09-05T19:19:49.392Z,101308.89
2018-09-05T19:24:42.159Z,101312.05
2018-09-05T19:29:34.744Z,101307.22
2018-09-05T19:34:27.334Z,101319.77
2018-09-05T19:39:19.915Z,101316.89
2018-09-05T19:44:12.798Z,101314.25
2018-09-05T19:49:05.408Z,101320.16
2018-09-05T19:53:57.950Z,101317.48
2018-09-05T19:58:50.551Z,101321.17
2018-09-05T20:03:43.103Z,101321.33
2018-09-05T20:08:35.817Z,101320.37
2018-09-05T20:13:28.448Z,101331.41
2018-09-05T20:18:21.203Z,101329.59
2018-09-05T20:23:13.812Z,101325.82
2018-09-05T20:28:06.501Z,101329.23
2018-09-05T20:32:59.117Z,101320.52
2018-09-05T20:37:51.674Z,101322.77
2018-09-05T20:42:44.457Z,101327.25
2018-09-05T20:47:37.049Z,101324.58
2018-09-05T20:52:29.655Z,101330.16
2018-09-05T20:57:22.282Z,101323.14
2018-09-05T21:02:14.839Z,101320.20
2018-09-05T21:07:07.454Z,101320.52
2018-09-05T21:12:00.232Z,101311.27
2018-09-05T21:16:52.882Z,101312.70
2018-09-05T21:21:45.432Z,101310.60
2018-09-05T21:26:38.218Z,101314.77
2018-09-05T21:31:30.699Z,101316.17
2018-09-05T21:36:23.353Z,101314.87
2018-09-05T21:41:15.908Z,101314.09
2018-09-05T21:46:08.528Z,101315.25
2018-09-05T21:51:01.121Z,101318.57
2018-09-05T21:55:53.768Z,101311.52
2018-09-05T22:00:47.324Z,101317.30
2018-09-05T22:05:39.886Z,101315.99
2018-09-05T22:10:32.397Z,101310.58
2018-09-05T22:15:24.967Z,101309.51
2018-09-05T22:20:17.476Z,101311.21
2018-09-05T22:25:10.013Z,101308.23
2018-09-05T22:30:02.557Z,101305.55
2018-09-05T22:34:55.402Z,101307.73
2018-09-05T22:39:47.962Z,101304.50
2018-09-05T22:44:58.237Z,101302.59
2018-09-05T22:51:13.289Z,101300.41
2018-09-05T22:56:37.868Z,101302.92
2018-09-05T23:01:53.843Z,101302.94
2018-09-05T23:07:03.819Z,101305.99
2018-09-05T23:12:23.034Z,101307.38
2018-09-05T23:18:33.060Z,101296.22
2018-09-05T23:23:43.219Z,101291.89
2018-09-05T23:28:36.549Z,101281.81
2018-09-05T23:33:29.176Z,101274.16
2018-09-05T23:38:21.812Z,101267.37
2018-09-05T23:43:14.527Z,101268.19
2018-09-05T23:48:07.195Z,101261.91
2018-09-05T23:52:59.826Z,101264.37
2018-09-05T23:57:52.411Z,101262.19
